sensor_id;sensor_type;location;lat;lon;timestamp;temperature;humidity
20839;DHT22;10580;51.092;6.828;2023-02-27T00:00:23;0.00;1.00
20839;DHT22;10580;51.092;6.828;2023-02-27T00:02:50;0.00;1.00
20839;DHT22;10580;51.092;6.828;2023-02-27T00:05:17;0.00;1.00
20839;DHT22;10580;51.092;6.828;2023-02-27T00:07:42;0.00;1.00
20839;DHT22;10580;51.092;6.828;2023-02-27T00:10:09;0.00;1.00
20839;DHT22;10580;51.092;6.828;2023-02-27T00:12:35;-0.10;1.00
20839;DHT22;10580;51.092;6.828;2023-02-27T00:15:22;-0.10;1.00
20839;DHT22;10580;51.092;6.828;2023-02-27T00:17:48;-0.10;1.00
20839;DHT22;10580;51.092;6.828;2023-02-27T00:20:15;-0.10;1.00
20839;DHT22;10580;51.092;6.828;2023-02-27T00:22:41;-0.10;1.00
20839;DHT22;10580;51.092;6.828;2023-02-27T00:25:08;-0.10;1.00
20839;DHT22;10580;51.092;6.828;2023-02-27T00:27:34;-0.20;1.00
20839;DHT22;10580;51.092;6.828;2023-02-27T00:30:00;-0.10;1.00
20839;DHT22;10580;51.092;6.828;2023-02-27T00:32:25;-0.20;1.00
20839;DHT22;10580;51.092;6.828;2023-02-27T00:34:51;-0.20;1.00
20839;DHT22;10580;51.092;6.828;2023-02-27T00:37:17;-0.20;1.00
20839;DHT22;10580;51.092;6.828;2023-02-27T00:39:42;-0.10;1.00
20839;DHT22;10580;51.092;6.828;2023-02-27T00:42:08;-0.20;1.00
20839;DHT22;10580;51.092;6.828;2023-02-27T00:44:33;-0.20;1.00
20839;DHT22;10580;51.092;6.828;2023-02-27T00:46:59;-0.20;1.00
20839;DHT22;10580;51.092;6.828;2023-02-27T00:49:25;-0.30;1.00
20839;DHT22;10580;51.092;6.828;2023-02-27T00:51:51;-0.20;1.00
20839;DHT22;10580;51.092;6.828;2023-02-27T00:54:17;-0.20;1.00
20839;DHT22;10580;51.092;6.828;2023-02-27T00:56:42;-0.30;1.00
20839;DHT22;10580;51.092;6.828;2023-02-27T00:59:08;-0.30;1.00
20839;DHT22;10580;51.092;6.828;2023-02-27T01:01:33;-0.30;1.00
20839;DHT22;10580;51.092;6.828;2023-02-27T01:03:59;-0.30;1.00
20839;DHT22;10580;51.092;6.828;2023-02-27T01:06:25;-0.40;1.00
20839;DHT22;10580;51.092;6.828;2023-02-27T01:08:51;-0.40;1.00
20839;DHT22;10580;51.092;6.828;2023-02-27T01:11:16;-0.40;1.00
20839;DHT22;10580;51.092;6.828;2023-02-27T01:13:42;-0.40;1.00
20839;DHT22;10580;51.092;6.828;2023-02-27T01:16:11;-0.40;1.00
20839;DHT22;10580;51.092;6.828;2023-02-27T01:18:36;-0.40;1.00
20839;DHT22;10580;51.092;6.828;2023-02-27T01:21:02;-0.40;1.00
20839;DHT22;10580;51.092;6.828;2023-02-27T01:23:28;-0.40;1.00
20839;DHT22;10580;51.092;6.828;2023-02-27T01:25:54;-0.40;1.00
20839;DHT22;10580;51.092;6.828;2023-02-27T01:28:20;-0.50;1.00
20839;DHT22;10580;51.092;6.828;2023-02-27T01:30:46;-0.40;1.00
20839;DHT22;10580;51.092;6.828;2023-02-27T01:33:12;-0.40;1.00
20839;DHT22;10580;51.092;6.828;2023-02-27T01:35:37;-0.50;1.00
20839;DHT22;10580;51.092;6.828;2023-02-27T01:38:03;-0.50;1.00
20839;DHT22;10580;51.092;6.828;2023-02-27T01:40:29;-0.50;1.00
20839;DHT22;10580;51.092;6.828;2023-02-27T01:42:54;-0.60;1.00
20839;DHT22;10580;51.092;6.828;2023-02-27T01:45:36;-0.60;1.00
20839;DHT22;10580;51.092;6.828;2023-02-27T01:48:05;-0.50;1.00
20839;DHT22;10580;51.092;6.828;2023-02-27T01:50:34;-0.60;1.00
20839;DHT22;10580;51.092;6.828;2023-02-27T01:53:01;-0.60;1.00
20839;DHT22;10580;51.092;6.828;2023-02-27T01:55:30;-0.70;1.00
20839;DHT22;10580;51.092;6.828;2023-02-27T01:57:57;-0.70;1.00
20839;DHT22;10580;51.092;6.828;2023-02-27T02:00:24;-0.70;1.00
20839;DHT22;10580;51.092;6.828;2023-02-27T02:03:03;-0.80;1.00
20839;DHT22;10580;51.092;6.828;2023-02-27T02:05:32;-0.70;1.00
20839;DHT22;10580;51.092;6.828;2023-02-27T02:07:58;-0.80;2.00
20839;DHT22;10580;51.092;6.828;2023-02-27T02:10:24;-0.80;1.00
20839;DHT22;10580;51.092;6.828;2023-02-27T02:12:50;-0.80;1.00
20839;DHT22;10580;51.092;6.828;2023-02-27T02:15:16;-0.80;1.20
20839;DHT22;10580;51.092;6.828;2023-02-27T02:18:09;-0.80;6.30
20839;DHT22;10580;51.092;6.828;2023-02-27T02:20:52;-0.90;9.90
20839;DHT22;10580;51.092;6.828;2023-02-27T02:26:30;-0.90;12.30
20839;DHT22;10580;51.092;6.828;2023-02-27T02:34:08;-0.90;15.10
20839;DHT22;10580;51.092;6.828;2023-02-27T02:40:04;-0.90;14.90
20839;DHT22;10580;51.092;6.828;2023-02-27T02:42:50;-0.90;15.50
20839;DHT22;10580;51.092;6.828;2023-02-27T02:53:15;-1.00;21.10
20839;DHT22;10580;51.092;6.828;2023-02-27T02:55:51;-0.90;22.90
20839;DHT22;10580;51.092;6.828;2023-02-27T03:01:12;-1.00;28.30
20839;DHT22;10580;51.092;6.828;2023-02-27T03:06:22;-1.10;37.60
20839;DHT22;10580;51.092;6.828;2023-02-27T03:08:53;-1.10;41.10
20839;DHT22;10580;51.092;6.828;2023-02-27T03:11:22;-1.10;45.40
20839;DHT22;10580;51.092;6.828;2023-02-27T03:13:53;-1.20;46.00
20839;DHT22;10580;51.092;6.828;2023-02-27T03:21:29;-1.20;47.90
20839;DHT22;10580;51.092;6.828;2023-02-27T03:23:58;-1.20;52.40
20839;DHT22;10580;51.092;6.828;2023-02-27T03:26:32;-1.30;56.00
20839;DHT22;10580;51.092;6.828;2023-02-27T03:29:01;-1.40;63.00
20839;DHT22;10580;51.092;6.828;2023-02-27T03:31:57;-1.30;64.60
20839;DHT22;10580;51.092;6.828;2023-02-27T03:34:34;-1.40;61.30
20839;DHT22;10580;51.092;6.828;2023-02-27T03:37:25;-1.40;64.10
20839;DHT22;10580;51.092;6.828;2023-02-27T03:40:30;-1.40;59.70
20839;DHT22;10580;51.092;6.828;2023-02-27T03:45:39;-1.50;56.20
20839;DHT22;10580;51.092;6.828;2023-02-27T03:48:07;-1.50;57.10
20839;DHT22;10580;51.092;6.828;2023-02-27T03:50:34;-1.60;59.10
20839;DHT22;10580;51.092;6.828;2023-02-27T03:53:06;-1.60;58.70
20839;DHT22;10580;51.092;6.828;2023-02-27T03:55:35;-1.60;62.00
20839;DHT22;10580;51.092;6.828;2023-02-27T03:58:04;-1.60;59.80
20839;DHT22;10580;51.092;6.828;2023-02-27T04:00:30;-1.50;59.70
20839;DHT22;10580;51.092;6.828;2023-02-27T04:02:58;-1.50;60.10
20839;DHT22;10580;51.092;6.828;2023-02-27T04:05:25;-1.60;61.30
20839;DHT22;10580;51.092;6.828;2023-02-27T04:08:24;-1.60;61.40
20839;DHT22;10580;51.092;6.828;2023-02-27T04:11:28;-1.70;61.00
20839;DHT22;10580;51.092;6.828;2023-02-27T04:17:23;-1.60;77.30
20839;DHT22;10580;51.092;6.828;2023-02-27T04:22:58;-1.70;71.90
20839;DHT22;10580;51.092;6.828;2023-02-27T04:25:40;-1.70;75.60
20839;DHT22;10580;51.092;6.828;2023-02-27T04:31:04;-1.70;77.40
20839;DHT22;10580;51.092;6.828;2023-02-27T04:36:42;-1.80;66.80
20839;DHT22;10580;51.092;6.828;2023-02-27T04:39:34;-1.80;64.90
20839;DHT22;10580;51.092;6.828;2023-02-27T04:42:04;-1.80;63.00
20839;DHT22;10580;51.092;6.828;2023-02-27T04:44:33;-1.80;61.70
20839;DHT22;10580;51.092;6.828;2023-02-27T04:47:02;-1.80;63.10
20839;DHT22;10580;51.092;6.828;2023-02-27T04:49:37;-1.90;65.70
20839;DHT22;10580;51.092;6.828;2023-02-27T04:52:15;-1.90;68.80
20839;DHT22;10580;51.092;6.828;2023-02-27T04:54:44;-1.90;73.40
20839;DHT22;10580;51.092;6.828;2023-02-27T04:57:15;-1.90;79.00
20839;DHT22;10580;51.092;6.828;2023-02-27T04:59:46;-1.90;81.90
20839;DHT22;10580;51.092;6.828;2023-02-27T05:02:19;-1.90;86.40
20839;DHT22;10580;51.092;6.828;2023-02-27T05:04:58;-2.00;90.50
20839;DHT22;10580;51.092;6.828;2023-02-27T05:07:30;-2.00;91.20
20839;DHT22;10580;51.092;6.828;2023-02-27T05:10:06;-2.00;92.70
20839;DHT22;10580;51.092;6.828;2023-02-27T05:15:14;-2.10;89.60
20839;DHT22;10580;51.092;6.828;2023-02-27T05:17:49;-2.20;91.50
20839;DHT22;10580;51.092;6.828;2023-02-27T05:20:17;-2.10;93.50
20839;DHT22;10580;51.092;6.828;2023-02-27T05:22:55;-2.10;93.80
20839;DHT22;10580;51.092;6.828;2023-02-27T05:32:53;-2.20;97.20
20839;DHT22;10580;51.092;6.828;2023-02-27T05:35:47;-2.10;98.90
20839;DHT22;10580;51.092;6.828;2023-02-27T05:41:13;-2.10;99.90
20839;DHT22;10580;51.092;6.828;2023-02-27T05:43:48;-2.20;99.90
20839;DHT22;10580;51.092;6.828;2023-02-27T05:46:24;-2.20;99.90
20839;DHT22;10580;51.092;6.828;2023-02-27T05:48:55;-2.20;99.90
20839;DHT22;10580;51.092;6.828;2023-02-27T05:51:25;-2.20;99.90
20839;DHT22;10580;51.092;6.828;2023-02-27T05:54:02;-2.20;99.90
20839;DHT22;10580;51.092;6.828;2023-02-27T05:56:29;-2.30;99.90
20839;DHT22;10580;51.092;6.828;2023-02-27T05:59:08;-2.30;99.90
20839;DHT22;10580;51.092;6.828;2023-02-27T06:01:36;-2.30;99.90
20839;DHT22;10580;51.092;6.828;2023-02-27T06:04:01;-2.30;99.90
20839;DHT22;10580;51.092;6.828;2023-02-27T06:06:29;-2.40;99.90
20839;DHT22;10580;51.092;6.828;2023-02-27T06:08:55;-2.40;99.90
20839;DHT22;10580;51.092;6.828;2023-02-27T06:11:20;-2.40;99.90
20839;DHT22;10580;51.092;6.828;2023-02-27T06:13:46;-2.40;99.90
20839;DHT22;10580;51.092;6.828;2023-02-27T06:16:12;-2.50;99.90
20839;DHT22;10580;51.092;6.828;2023-02-27T06:18:39;-2.50;99.90
20839;DHT22;10580;51.092;6.828;2023-02-27T06:21:04;-2.50;99.90
20839;DHT22;10580;51.092;6.828;2023-02-27T06:23:30;-2.40;99.90
20839;DHT22;10580;51.092;6.828;2023-02-27T06:25:56;-2.40;99.90
20839;DHT22;10580;51.092;6.828;2023-02-27T06:28:45;-2.40;99.90
20839;DHT22;10580;51.092;6.828;2023-02-27T06:31:11;-2.30;99.90
20839;DHT22;10580;51.092;6.828;2023-02-27T06:33:36;-2.30;99.90
20839;DHT22;10580;51.092;6.828;2023-02-27T06:36:02;-2.40;99.90
20839;DHT22;10580;51.092;6.828;2023-02-27T06:38:28;-2.30;99.90
20839;DHT22;10580;51.092;6.828;2023-02-27T06:40:53;-2.30;99.90
20839;DHT22;10580;51.092;6.828;2023-02-27T06:43:19;-2.30;99.90
20839;DHT22;10580;51.092;6.828;2023-02-27T06:45:47;-2.20;99.90
20839;DHT22;10580;51.092;6.828;2023-02-27T06:48:13;-2.20;99.90
20839;DHT22;10580;51.092;6.828;2023-02-27T06:50:39;-2.10;99.90
20839;DHT22;10580;51.092;6.828;2023-02-27T06:53:05;-2.00;99.90
20839;DHT22;10580;51.092;6.828;2023-02-27T06:55:31;-2.00;99.90
20839;DHT22;10580;51.092;6.828;2023-02-27T06:57:57;-1.90;99.90
20839;DHT22;10580;51.092;6.828;2023-02-27T07:00:23;-1.80;99.90
20839;DHT22;10580;51.092;6.828;2023-02-27T07:02:49;-1.70;99.90
20839;DHT22;10580;51.092;6.828;2023-02-27T07:05:15;-1.70;99.90
20839;DHT22;10580;51.092;6.828;2023-02-27T07:07:40;-1.60;99.90
20839;DHT22;10580;51.092;6.828;2023-02-27T07:10:10;-1.50;99.90
20839;DHT22;10580;51.092;6.828;2023-02-27T07:12:37;-1.40;99.90
20839;DHT22;10580;51.092;6.828;2023-02-27T07:15:04;-1.30;99.90
20839;DHT22;10580;51.092;6.828;2023-02-27T07:17:29;-0.70;99.90
20839;DHT22;10580;51.092;6.828;2023-02-27T07:19:56;0.90;99.90
20839;DHT22;10580;51.092;6.828;2023-02-27T07:22:21;2.70;99.90
20839;DHT22;10580;51.092;6.828;2023-02-27T07:24:47;3.50;1.00
20839;DHT22;10580;51.092;6.828;2023-02-27T07:27:12;3.60;1.00
20839;DHT22;10580;51.092;6.828;2023-02-27T07:29:38;3.30;99.90
20839;DHT22;10580;51.092;6.828;2023-02-27T07:32:04;3.20;1.00
20839;DHT22;10580;51.092;6.828;2023-02-27T07:34:29;3.10;1.00
20839;DHT22;10580;51.092;6.828;2023-02-27T07:36:57;3.50;99.90
20839;DHT22;10580;51.092;6.828;2023-02-27T07:39:23;4.10;76.30
20839;DHT22;10580;51.092;6.828;2023-02-27T07:41:49;4.40;1.00
20839;DHT22;10580;51.092;6.828;2023-02-27T07:44:14;4.80;1.00
20839;DHT22;10580;51.092;6.828;2023-02-27T07:46:40;4.80;1.00
20839;DHT22;10580;51.092;6.828;2023-02-27T07:49:05;5.00;1.00
20839;DHT22;10580;51.092;6.828;2023-02-27T07:51:31;5.30;1.00
20839;DHT22;10580;51.092;6.828;2023-02-27T07:53:57;5.40;51.60
20839;DHT22;10580;51.092;6.828;2023-02-27T07:56:23;5.10;1.00
20839;DHT22;10580;51.092;6.828;2023-02-27T07:58:49;4.80;1.00
20839;DHT22;10580;51.092;6.828;2023-02-27T08:01:15;4.40;91.20
20839;DHT22;10580;51.092;6.828;2023-02-27T08:03:40;4.00;1.00
20839;DHT22;10580;51.092;6.828;2023-02-27T08:06:06;3.30;1.00
20839;DHT22;10580;51.092;6.828;2023-02-27T08:08:31;2.90;99.90
20839;DHT22;10580;51.092;6.828;2023-02-27T08:10:57;2.50;1.00
20839;DHT22;10580;51.092;6.828;2023-02-27T08:13:23;2.20;1.00
20839;DHT22;10580;51.092;6.828;2023-02-27T08:15:49;2.00;1.00
20839;DHT22;10580;51.092;6.828;2023-02-27T08:18:14;1.90;1.00
20839;DHT22;10580;51.092;6.828;2023-02-27T08:20:40;1.90;1.00
20839;DHT22;10580;51.092;6.828;2023-02-27T08:23:05;1.90;1.00
20839;DHT22;10580;51.092;6.828;2023-02-27T08:28:26;1.80;1.00
20839;DHT22;10580;51.092;6.828;2023-02-27T08:30:52;1.80;1.00
20839;DHT22;10580;51.092;6.828;2023-02-27T08:33:19;1.80;1.00
20839;DHT22;10580;51.092;6.828;2023-02-27T08:35:45;1.80;1.00
20839;DHT22;10580;51.092;6.828;2023-02-27T08:38:10;2.00;1.00
20839;DHT22;10580;51.092;6.828;2023-02-27T08:40:36;2.20;1.00
20839;DHT22;10580;51.092;6.828;2023-02-27T08:43:01;2.40;1.00
20839;DHT22;10580;51.092;6.828;2023-02-27T08:45:27;2.50;1.00
20839;DHT22;10580;51.092;6.828;2023-02-27T08:47:52;2.80;1.00
20839;DHT22;10580;51.092;6.828;2023-02-27T08:50:18;2.90;1.00
20839;DHT22;10580;51.092;6.828;2023-02-27T08:52:43;2.90;1.00
20839;DHT22;10580;51.092;6.828;2023-02-27T08:55:09;2.90;1.00
20839;DHT22;10580;51.092;6.828;2023-02-27T08:57:37;3.00;1.00
20839;DHT22;10580;51.092;6.828;2023-02-27T09:00:04;3.80;99.90
20839;DHT22;10580;51.092;6.828;2023-02-27T09:02:32;5.70;99.90
20839;DHT22;10580;51.092;6.828;2023-02-27T09:04:59;8.40;99.90
20839;DHT22;10580;51.092;6.828;2023-02-27T09:07:25;10.00;99.90
20839;DHT22;10580;51.092;6.828;2023-02-27T09:09:51;11.20;93.50
20839;DHT22;10580;51.092;6.828;2023-02-27T09:12:16;10.80;1.00
20839;DHT22;10580;51.092;6.828;2023-02-27T09:14:42;11.60;1.00
20839;DHT22;10580;51.092;6.828;2023-02-27T09:17:08;12.00;1.00
20839;DHT22;10580;51.092;6.828;2023-02-27T09:19:33;11.50;1.00
20839;DHT22;10580;51.092;6.828;2023-02-27T09:21:59;11.60;1.00
20839;DHT22;10580;51.092;6.828;2023-02-27T09:24:24;11.00;1.00
20839;DHT22;10580;51.092;6.828;2023-02-27T09:26:50;10.40;1.00
20839;DHT22;10580;51.092;6.828;2023-02-27T09:29:16;9.80;1.00
20839;DHT22;10580;51.092;6.828;2023-02-27T09:31:42;9.30;1.00
20839;DHT22;10580;51.092;6.828;2023-02-27T09:34:07;9.00;1.00
20839;DHT22;10580;51.092;6.828;2023-02-27T09:36:33;8.80;1.00
20839;DHT22;10580;51.092;6.828;2023-02-27T09:38:59;9.00;1.00
20839;DHT22;10580;51.092;6.828;2023-02-27T09:41:50;9.50;1.00
20839;DHT22;10580;51.092;6.828;2023-02-27T09:46:50;11.40;1.00
20839;DHT22;10580;51.092;6.828;2023-02-27T09:49:18;11.80;1.00
20839;DHT22;10580;51.092;6.828;2023-02-27T09:51:45;11.40;1.00
20839;DHT22;10580;51.092;6.828;2023-02-27T09:54:11;11.40;1.00
20839;DHT22;10580;51.092;6.828;2023-02-27T09:56:52;11.10;1.00
20839;DHT22;10580;51.092;6.828;2023-02-27T09:59:43;10.70;1.00
20839;DHT22;10580;51.092;6.828;2023-02-27T10:15:46;8.30;1.00
20839;DHT22;10580;51.092;6.828;2023-02-27T10:18:40;8.30;1.00
20839;DHT22;10580;51.092;6.828;2023-02-27T10:21:16;8.70;1.00
20839;DHT22;10580;51.092;6.828;2023-02-27T10:23:55;8.50;1.00
20839;DHT22;10580;51.092;6.828;2023-02-27T10:26:26;8.30;1.00
20839;DHT22;10580;51.092;6.828;2023-02-27T10:28:54;8.50;1.00
20839;DHT22;10580;51.092;6.828;2023-02-27T10:31:27;9.10;1.00
20839;DHT22;10580;51.092;6.828;2023-02-27T10:33:56;9.30;1.00
20839;DHT22;10580;51.092;6.828;2023-02-27T10:36:22;9.30;1.00
20839;DHT22;10580;51.092;6.828;2023-02-27T10:38:55;9.60;1.00
20839;DHT22;10580;51.092;6.828;2023-02-27T10:41:23;10.10;1.00
20839;DHT22;10580;51.092;6.828;2023-02-27T10:43:51;10.30;1.00
20839;DHT22;10580;51.092;6.828;2023-02-27T10:46:31;10.70;1.00
20839;DHT22;10580;51.092;6.828;2023-02-27T10:49:01;10.60;1.00
20839;DHT22;10580;51.092;6.828;2023-02-27T10:51:32;10.90;1.00
20839;DHT22;10580;51.092;6.828;2023-02-27T10:56:54;9.50;1.00
20839;DHT22;10580;51.092;6.828;2023-02-27T11:02:00;8.90;1.00
20839;DHT22;10580;51.092;6.828;2023-02-27T11:04:38;8.50;1.00
20839;DHT22;10580;51.092;6.828;2023-02-27T11:07:13;8.90;1.00
20839;DHT22;10580;51.092;6.828;2023-02-27T11:10:14;9.70;1.00
20839;DHT22;10580;51.092;6.828;2023-02-27T11:12:43;9.90;1.00
20839;DHT22;10580;51.092;6.828;2023-02-27T11:15:23;9.30;1.00
20839;DHT22;10580;51.092;6.828;2023-02-27T11:17:50;8.40;1.00
20839;DHT22;10580;51.092;6.828;2023-02-27T11:20:38;7.90;1.00
20839;DHT22;10580;51.092;6.828;2023-02-27T11:23:20;7.20;1.00
20839;DHT22;10580;51.092;6.828;2023-02-27T11:25:46;6.90;1.00
20839;DHT22;10580;51.092;6.828;2023-02-27T11:28:27;6.60;1.00
20839;DHT22;10580;51.092;6.828;2023-02-27T11:31:02;6.30;1.00
20839;DHT22;10580;51.092;6.828;2023-02-27T11:33:33;6.20;1.00
20839;DHT22;10580;51.092;6.828;2023-02-27T11:35:59;6.20;1.00
20839;DHT22;10580;51.092;6.828;2023-02-27T11:38:26;6.20;1.00
20839;DHT22;10580;51.092;6.828;2023-02-27T11:40:55;6.10;1.00
20839;DHT22;10580;51.092;6.828;2023-02-27T11:43:28;6.10;1.00
20839;DHT22;10580;51.092;6.828;2023-02-27T11:45:58;6.00;1.00
20839;DHT22;10580;51.092;6.828;2023-02-27T11:48:28;5.90;1.00
20839;DHT22;10580;51.092;6.828;2023-02-27T11:51:04;6.00;1.00
20839;DHT22;10580;51.092;6.828;2023-02-27T11:53:40;5.80;1.00
20839;DHT22;10580;51.092;6.828;2023-02-27T11:56:42;5.70;1.00
20839;DHT22;10580;51.092;6.828;2023-02-27T11:59:16;5.60;1.00
20839;DHT22;10580;51.092;6.828;2023-02-27T12:01:51;5.70;1.00
20839;DHT22;10580;51.092;6.828;2023-02-27T12:08:09;6.20;1.00
20839;DHT22;10580;51.092;6.828;2023-02-27T12:10:27;6.70;1.00
20839;DHT22;10580;51.092;6.828;2023-02-27T12:13:10;7.40;1.00
20839;DHT22;10580;51.092;6.828;2023-02-27T12:15:58;7.60;1.00
20839;DHT22;10580;51.092;6.828;2023-02-27T12:18:37;7.30;1.00
20839;DHT22;10580;51.092;6.828;2023-02-27T12:21:10;7.50;1.00
20839;DHT22;10580;51.092;6.828;2023-02-27T12:23:44;7.90;1.00
20839;DHT22;10580;51.092;6.828;2023-02-27T12:26:28;7.70;1.00
20839;DHT22;10580;51.092;6.828;2023-02-27T12:31:50;7.50;1.00
20839;DHT22;10580;51.092;6.828;2023-02-27T12:34:49;7.10;1.00
20839;DHT22;10580;51.092;6.828;2023-02-27T12:37:23;6.80;1.00
20839;DHT22;10580;51.092;6.828;2023-02-27T12:39:49;6.80;1.00
20839;DHT22;10580;51.092;6.828;2023-02-27T12:54:11;6.80;1.00
20839;DHT22;10580;51.092;6.828;2023-02-27T13:05:02;7.40;1.00
20839;DHT22;10580;51.092;6.828;2023-02-27T13:07:42;7.20;1.00
20839;DHT22;10580;51.092;6.828;2023-02-27T13:10:20;7.10;1.00
20839;DHT22;10580;51.092;6.828;2023-02-27T13:12:56;7.40;1.00
20839;DHT22;10580;51.092;6.828;2023-02-27T13:15:35;7.30;1.00
20839;DHT22;10580;51.092;6.828;2023-02-27T13:18:30;7.60;1.00
20839;DHT22;10580;51.092;6.828;2023-02-27T13:21:10;8.20;1.00
20839;DHT22;10580;51.092;6.828;2023-02-27T13:26:43;9.30;1.00
20839;DHT22;10580;51.092;6.828;2023-02-27T13:29:13;9.70;1.00
20839;DHT22;10580;51.092;6.828;2023-02-27T13:31:54;9.70;1.00
20839;DHT22;10580;51.092;6.828;2023-02-27T13:34:31;10.00;1.00
20839;DHT22;10580;51.092;6.828;2023-02-27T13:37:02;9.70;1.00
20839;DHT22;10580;51.092;6.828;2023-02-27T13:39:55;9.60;1.00
20839;DHT22;10580;51.092;6.828;2023-02-27T13:45:03;9.00;1.00
20839;DHT22;10580;51.092;6.828;2023-02-27T13:50:02;8.10;1.00
20839;DHT22;10580;51.092;6.828;2023-02-27T13:52:33;8.30;1.00
20839;DHT22;10580;51.092;6.828;2023-02-27T13:54:59;8.50;1.00
20839;DHT22;10580;51.092;6.828;2023-02-27T13:57:31;8.60;1.00
20839;DHT22;10580;51.092;6.828;2023-02-27T14:00:00;8.70;1.00
20839;DHT22;10580;51.092;6.828;2023-02-27T14:02:41;8.80;1.00
20839;DHT22;10580;51.092;6.828;2023-02-27T14:05:10;8.90;1.00
20839;DHT22;10580;51.092;6.828;2023-02-27T14:08:45;8.90;1.00
20839;DHT22;10580;51.092;6.828;2023-02-27T14:16:11;8.10;1.00
20839;DHT22;10580;51.092;6.828;2023-02-27T14:19:24;8.20;1.00
20839;DHT22;10580;51.092;6.828;2023-02-27T14:24:30;8.20;1.00
20839;DHT22;10580;51.092;6.828;2023-02-27T14:26:57;8.40;1.00
20839;DHT22;10580;51.092;6.828;2023-02-27T14:29:28;8.40;1.00
20839;DHT22;10580;51.092;6.828;2023-02-27T14:32:00;8.10;1.00
20839;DHT22;10580;51.092;6.828;2023-02-27T14:34:27;7.90;1.00
20839;DHT22;10580;51.092;6.828;2023-02-27T14:36:57;7.70;1.00
20839;DHT22;10580;51.092;6.828;2023-02-27T14:39:33;7.60;1.00
20839;DHT22;10580;51.092;6.828;2023-02-27T14:44:49;7.80;1.00
20839;DHT22;10580;51.092;6.828;2023-02-27T14:47:32;7.70;1.00
20839;DHT22;10580;51.092;6.828;2023-02-27T14:49:59;7.60;1.00
20839;DHT22;10580;51.092;6.828;2023-02-27T14:52:28;7.70;1.00
20839;DHT22;10580;51.092;6.828;2023-02-27T14:55:18;7.70;1.00
20839;DHT22;10580;51.092;6.828;2023-02-27T15:00:38;7.80;1.00
20839;DHT22;10580;51.092;6.828;2023-02-27T15:03:24;7.60;1.00
20839;DHT22;10580;51.092;6.828;2023-02-27T15:05:53;7.50;1.00
20839;DHT22;10580;51.092;6.828;2023-02-27T15:08:21;7.40;1.00
20839;DHT22;10580;51.092;6.828;2023-02-27T15:10:49;7.30;1.00
20839;DHT22;10580;51.092;6.828;2023-02-27T15:13:38;7.20;1.00
20839;DHT22;10580;51.092;6.828;2023-02-27T15:16:40;7.20;1.00
20839;DHT22;10580;51.092;6.828;2023-02-27T15:19:18;7.10;1.00
20839;DHT22;10580;51.092;6.828;2023-02-27T15:24:35;6.80;1.00
20839;DHT22;10580;51.092;6.828;2023-02-27T15:27:03;6.80;1.00
20839;DHT22;10580;51.092;6.828;2023-02-27T15:29:48;6.40;1.00
20839;DHT22;10580;51.092;6.828;2023-02-27T15:32:54;6.30;1.00
20839;DHT22;10580;51.092;6.828;2023-02-27T15:35:35;6.20;1.00
20839;DHT22;10580;51.092;6.828;2023-02-27T15:38:01;6.10;1.00
20839;DHT22;10580;51.092;6.828;2023-02-27T15:40:29;6.30;1.00
20839;DHT22;10580;51.092;6.828;2023-02-27T15:42:56;6.20;1.00
20839;DHT22;10580;51.092;6.828;2023-02-27T15:45:26;6.00;1.00
20839;DHT22;10580;51.092;6.828;2023-02-27T15:47:53;6.00;1.00
20839;DHT22;10580;51.092;6.828;2023-02-27T15:50:30;6.00;1.00
20839;DHT22;10580;51.092;6.828;2023-02-27T15:53:40;5.90;1.00
20839;DHT22;10580;51.092;6.828;2023-02-27T15:56:04;5.90;1.00
20839;DHT22;10580;51.092;6.828;2023-02-27T15:58:44;5.80;1.00
20839;DHT22;10580;51.092;6.828;2023-02-27T16:01:17;5.70;1.00
20839;DHT22;10580;51.092;6.828;2023-02-27T16:03:46;5.70;1.00
20839;DHT22;10580;51.092;6.828;2023-02-27T16:08:54;5.60;1.00
20839;DHT22;10580;51.092;6.828;2023-02-27T16:11:26;5.40;1.00
20839;DHT22;10580;51.092;6.828;2023-02-27T16:13:52;5.20;1.00
20839;DHT22;10580;51.092;6.828;2023-02-27T16:16:28;5.10;1.00
20839;DHT22;10580;51.092;6.828;2023-02-27T16:18:58;5.10;1.00
20839;DHT22;10580;51.092;6.828;2023-02-27T16:21:28;5.10;1.00
20839;DHT22;10580;51.092;6.828;2023-02-27T16:24:18;5.00;1.00
20839;DHT22;10580;51.092;6.828;2023-02-27T16:26:50;4.90;1.00
20839;DHT22;10580;51.092;6.828;2023-02-27T16:29:27;4.90;1.00
20839;DHT22;10580;51.092;6.828;2023-02-27T16:31:56;4.80;1.00
20839;DHT22;10580;51.092;6.828;2023-02-27T16:34:36;4.80;1.00
20839;DHT22;10580;51.092;6.828;2023-02-27T16:37:38;4.80;1.00
20839;DHT22;10580;51.092;6.828;2023-02-27T16:40:19;4.70;1.00
20839;DHT22;10580;51.092;6.828;2023-02-27T16:42:46;4.60;1.00
20839;DHT22;10580;51.092;6.828;2023-02-27T16:45:21;4.60;1.00
20839;DHT22;10580;51.092;6.828;2023-02-27T16:47:49;4.60;1.00
20839;DHT22;10580;51.092;6.828;2023-02-27T16:50:23;4.50;1.00
20839;DHT22;10580;51.092;6.828;2023-02-27T16:52:50;4.50;1.00
20839;DHT22;10580;51.092;6.828;2023-02-27T16:55:16;4.40;1.00
20839;DHT22;10580;51.092;6.828;2023-02-27T16:57:42;4.40;1.00
20839;DHT22;10580;51.092;6.828;2023-02-27T17:00:10;4.30;1.00
20839;DHT22;10580;51.092;6.828;2023-02-27T17:02:37;4.30;1.00
20839;DHT22;10580;51.092;6.828;2023-02-27T17:05:03;4.40;99.90
20839;DHT22;10580;51.092;6.828;2023-02-27T17:07:32;4.70;1.00
20839;DHT22;10580;51.092;6.828;2023-02-27T17:09:58;5.00;99.90
20839;DHT22;10580;51.092;6.828;2023-02-27T17:12:24;4.80;99.90
20839;DHT22;10580;51.092;6.828;2023-02-27T17:14:52;4.60;99.90
20839;DHT22;10580;51.092;6.828;2023-02-27T17:17:18;4.40;99.90
20839;DHT22;10580;51.092;6.828;2023-02-27T17:19:44;4.20;99.90
20839;DHT22;10580;51.092;6.828;2023-02-27T17:22:10;4.10;99.90
20839;DHT22;10580;51.092;6.828;2023-02-27T17:24:36;4.00;99.90
20839;DHT22;10580;51.092;6.828;2023-02-27T17:27:02;4.00;99.90
20839;DHT22;10580;51.092;6.828;2023-02-27T17:29:28;3.90;99.90
20839;DHT22;10580;51.092;6.828;2023-02-27T17:31:54;3.90;99.90
20839;DHT22;10580;51.092;6.828;2023-02-27T17:34:20;3.80;99.90
20839;DHT22;10580;51.092;6.828;2023-02-27T17:36:48;3.80;99.90
20839;DHT22;10580;51.092;6.828;2023-02-27T17:39:14;3.70;99.90
20839;DHT22;10580;51.092;6.828;2023-02-27T17:41:41;3.70;99.90
20839;DHT22;10580;51.092;6.828;2023-02-27T17:44:09;3.60;99.90
20839;DHT22;10580;51.092;6.828;2023-02-27T17:46:35;3.60;99.90
20839;DHT22;10580;51.092;6.828;2023-02-27T17:49:01;3.60;99.90
20839;DHT22;10580;51.092;6.828;2023-02-27T17:51:28;3.60;1.00
20839;DHT22;10580;51.092;6.828;2023-02-27T17:53:55;3.50;1.00
20839;DHT22;10580;51.092;6.828;2023-02-27T17:56:22;3.40;1.00
20839;DHT22;10580;51.092;6.828;2023-02-27T17:58:47;3.40;1.00
20839;DHT22;10580;51.092;6.828;2023-02-27T18:01:15;3.40;1.00
20839;DHT22;10580;51.092;6.828;2023-02-27T18:03:44;3.40;1.00
20839;DHT22;10580;51.092;6.828;2023-02-27T18:06:10;3.30;1.00
20839;DHT22;10580;51.092;6.828;2023-02-27T18:08:36;3.30;1.00
20839;DHT22;10580;51.092;6.828;2023-02-27T18:11:01;3.20;22.50
20839;DHT22;10580;51.092;6.828;2023-02-27T18:13:28;3.20;60.00
20839;DHT22;10580;51.092;6.828;2023-02-27T18:15:54;3.20;99.90
20839;DHT22;10580;51.092;6.828;2023-02-27T18:18:21;3.10;99.90
20839;DHT22;10580;51.092;6.828;2023-02-27T18:20:46;3.10;99.90
20839;DHT22;10580;51.092;6.828;2023-02-27T18:23:13;3.10;99.90
20839;DHT22;10580;51.092;6.828;2023-02-27T18:25:39;3.00;1.00
20839;DHT22;10580;51.092;6.828;2023-02-27T18:28:05;3.00;99.90
20839;DHT22;10580;51.092;6.828;2023-02-27T18:30:35;3.00;1.00